createdAt,value
2017-11-21T00:00:56.655Z,100234.02
2017-11-21T00:01:59.128Z,100233.16
2017-11-21T00:03:01.610Z,100232.31
2017-11-21T00:04:04.072Z,100231.03
2017-11-21T00:05:06.553Z,100233.23
2017-11-21T00:06:09.055Z,100229.84
2017-11-21T00:07:11.528Z,100235.90
2017-11-21T00:08:14.010Z,100239.28
2017-11-21T00:09:16.499Z,100234.94
2017-11-21T00:10:18.963Z,100234.20
2017-11-21T00:11:21.443Z,100233.92
2017-11-21T00:12:23.920Z,100233.27
2017-11-21T00:13:26.387Z,100241.63
2017-11-21T00:14:28.860Z,100239.44
2017-11-21T00:15:31.347Z,100242.41
2017-11-21T00:16:33.848Z,100241.33
2017-11-21T00:17:36.329Z,100237.88
2017-11-21T00:18:38.813Z,100246.36
2017-11-21T00:19:41.299Z,100237.76
2017-11-21T00:20:43.787Z,100239.15
2017-11-21T00:21:46.273Z,100237.37
2017-11-21T00:22:48.765Z,100230.04
2017-11-21T00:23:51.237Z,100235.14
2017-11-21T00:24:53.713Z,100234.83
2017-11-21T00:25:56.194Z,100225.95
2017-11-21T00:26:58.683Z,100226.31
2017-11-21T00:28:01.165Z,100233.87
2017-11-21T00:29:03.728Z,100227.65
2017-11-21T00:30:06.212Z,100231.52
2017-11-21T00:31:08.699Z,100234.48
2017-11-21T00:32:11.163Z,100234.33
2017-11-21T00:33:13.644Z,100239.50
2017-11-21T00:34:16.108Z,100234.48
2017-11-21T00:35:18.591Z,100230.05
2017-11-21T00:36:21.070Z,100236.62
2017-11-21T00:37:23.534Z,100231.88
2017-11-21T00:38:26.029Z,100228.56
2017-11-21T00:39:28.510Z,100229.97
2017-11-21T00:40:30.993Z,100225.70
2017-11-21T00:41:33.478Z,100224.45
2017-11-21T00:42:35.986Z,100227.36
2017-11-21T00:43:38.460Z,100230.37
2017-11-21T00:44:40.924Z,100224.68
2017-11-21T00:45:43.409Z,100226.06
2017-11-21T00:46:45.871Z,100228.54
2017-11-21T00:47:48.354Z,100228.13
2017-11-21T00:48:50.840Z,100228.69
2017-11-21T00:49:53.304Z,100230.56
2017-11-21T00:50:55.789Z,100225.41
2017-11-21T00:51:58.264Z,100229.11
2017-11-21T00:53:00.759Z,100231.66
2017-11-21T00:54:03.234Z,100230.81
2017-11-21T00:55:05.696Z,100224.54
2017-11-21T00:56:08.176Z,100225.29
2017-11-21T00:57:10.663Z,100225.02
2017-11-21T00:58:13.136Z,100221.73
2017-11-21T00:59:15.605Z,100223.84
2017-11-21T01:00:18.090Z,100225.64
2017-11-21T01:01:20.561Z,100226.50
2017-11-21T01:02:23.037Z,100226.84
2017-11-21T01:03:25.508Z,100229.61
2017-11-21T01:04:27.987Z,100230.43
2017-11-21T01:05:30.464Z,100228.53
2017-11-21T01:06:32.936Z,100238.62
2017-11-21T01:07:35.431Z,100234.52
2017-11-21T01:08:37.908Z,100230.17
2017-11-21T01:09:40.391Z,100227.09
2017-11-21T01:10:42.858Z,100230.14
2017-11-21T01:11:45.338Z,100231.27
2017-11-21T01:12:47.812Z,100232.26
2017-11-21T01:13:50.293Z,100234.32
2017-11-21T01:14:52.786Z,100235.02
2017-11-21T01:15:55.256Z,100231.69
2017-11-21T01:16:57.734Z,100230.90
2017-11-21T01:18:00.228Z,100227.15
2017-11-21T01:19:02.695Z,100229.38
2017-11-21T01:20:05.170Z,100234.40
2017-11-21T01:21:07.641Z,100240.61
2017-11-21T01:22:10.120Z,100231.34
2017-11-21T01:23:12.597Z,100230.55
2017-11-21T01:24:15.117Z,100232.91
2017-11-21T01:25:17.593Z,100230.78
2017-11-21T01:26:20.073Z,100229.52
2017-11-21T01:27:22.547Z,100227.34
2017-11-21T01:28:25.012Z,100224.06
2017-11-21T01:29:27.511Z,100226.75
2017-11-21T01:30:29.983Z,100230.98
2017-11-21T01:31:32.444Z,100229.52
2017-11-21T01:32:34.923Z,100230.05
2017-11-21T01:33:37.409Z,100220.61
2017-11-21T01:34:39.887Z,100229.37
2017-11-21T01:35:42.361Z,100228.72
2017-11-21T01:36:44.842Z,100230.72
2017-11-21T01:37:47.326Z,100231.15
2017-11-21T01:38:49.797Z,100232.26
2017-11-21T01:39:52.288Z,100232.26
2017-11-21T01:40:54.789Z,100233.69
2017-11-21T01:41:57.301Z,100230.58
2017-11-21T01:42:59.783Z,100233.37
2017-11-21T01:44:02.266Z,100234.30
2017-11-21T01:45:04.750Z,100232.11
2017-11-21T01:46:07.223Z,100231.56
2017-11-21T01:47:09.711Z,100233.64
2017-11-21T01:48:12.179Z,100233.28
2017-11-21T01:49:14.660Z,100229.08
2017-11-21T01:50:17.142Z,100224.84
2017-11-21T01:51:19.731Z,100240.37
2017-11-21T01:52:22.234Z,100232.19
2017-11-21T01:53:24.713Z,100228.78
2017-11-21T01:54:27.199Z,100235.59
2017-11-21T01:55:29.671Z,100231.91
2017-11-21T01:56:32.159Z,100236.13
2017-11-21T01:57:34.639Z,100232.48
2017-11-21T01:58:37.109Z,100230.78
2017-11-21T01:59:39.585Z,100226.06
2017-11-21T02:00:42.070Z,100223.09
2017-11-21T02:01:44.567Z,100227.65
2017-11-21T02:02:47.064Z,100230.14
2017-11-21T02:03:49.555Z,100226.26
2017-11-21T02:04:52.089Z,100217.58
2017-11-21T02:05:54.606Z,100218.97
2017-11-21T02:06:57.075Z,100228.03
2017-11-21T02:07:59.544Z,100231.40
2017-11-21T02:09:02.008Z,100233.10
2017-11-21T02:10:04.479Z,100232.67
2017-11-21T02:11:06.970Z,100233.27
2017-11-21T02:12:09.436Z,100231.70
2017-11-21T02:13:11.908Z,100232.11
2017-11-21T02:14:14.412Z,100233.77
2017-11-21T02:15:16.875Z,100229.52
2017-11-21T02:16:19.363Z,100230.49
2017-11-21T02:17:21.827Z,100227.22
2017-11-21T02:18:24.297Z,100229.35
2017-11-21T02:19:26.779Z,100229.41
2017-11-21T02:20:29.246Z,100233.12
2017-11-21T02:21:31.732Z,100229.70
2017-11-21T02:22:34.200Z,100226.63
2017-11-21T02:23:36.691Z,100223.35
2017-11-21T02:24:39.165Z,100226.95
2017-11-21T02:25:41.671Z,100228.23
2017-11-21T02:26:44.154Z,100227.00
2017-11-21T02:27:46.638Z,100228.77
2017-11-21T02:28:49.122Z,100226.66
2017-11-21T02:29:51.611Z,100221.62
2017-11-21T02:30:54.076Z,100224.23
2017-11-21T02:31:56.554Z,100221.62
2017-11-21T02:32:59.043Z,100226.66
2017-11-21T02:34:01.571Z,100229.27
2017-11-21T02:35:04.063Z,100225.88
2017-11-21T02:36:06.546Z,100227.22
2017-11-21T02:37:09.016Z,100227.16
2017-11-21T02:38:11.479Z,100228.55
2017-11-21T02:39:13.971Z,100231.94
2017-11-21T02:40:16.441Z,100232.77
2017-11-21T02:41:18.935Z,100228.54
2017-11-21T02:42:21.415Z,100232.38
2017-11-21T02:43:23.891Z,100235.40
2017-11-21T02:44:26.368Z,100231.33
2017-11-21T02:45:28.840Z,100232.67
2017-11-21T02:46:31.308Z,100235.81
2017-11-21T02:47:33.780Z,100234.86
2017-11-21T02:48:36.260Z,100225.09
2017-11-21T02:49:38.724Z,100230.37
2017-11-21T02:50:41.206Z,100234.25
2017-11-21T02:51:43.701Z,100235.03
2017-11-21T02:52:46.177Z,100230.44
2017-11-21T02:53:48.657Z,100229.53
2017-11-21T02:54:51.126Z,100240.67
2017-11-21T02:55:53.600Z,100234.80
2017-11-21T02:56:56.065Z,100230.44
2017-11-21T02:57:58.536Z,100227.52
2017-11-21T02:59:01.008Z,100230.07
2017-11-21T03:00:03.477Z,100228.00
2017-11-21T03:01:05.949Z,100228.50
2017-11-21T03:02:08.422Z,100227.64
2017-11-21T03:03:10.919Z,100237.19
2017-11-21T03:04:13.410Z,100231.86
2017-11-21T03:05:15.879Z,100227.70
2017-11-21T03:06:18.366Z,100230.83
2017-11-21T03:07:20.849Z,100234.63
2017-11-21T03:08:23.329Z,100230.87
2017-11-21T03:09:25.814Z,100229.11
2017-11-21T03:10:28.283Z,100237.62
2017-11-21T03:11:30.752Z,100239.86
2017-11-21T03:12:33.221Z,100232.64
2017-11-21T03:13:35.728Z,100239.00
2017-11-21T03:14:38.210Z,100245.80
2017-11-21T03:15:40.693Z,100240.23
2017-11-21T03:16:43.185Z,100238.77
2017-11-21T03:17:45.670Z,100238.33
2017-11-21T03:18:48.144Z,100236.27
2017-11-21T03:19:50.630Z,100235.84
2017-11-21T03:21:04.980Z,100231.48
2017-11-21T03:22:19.238Z,100236.40
2017-11-21T03:23:33.516Z,100232.72
2017-11-21T03:24:47.864Z,100225.48
2017-11-21T03:26:02.235Z,100234.34
2017-11-21T03:27:11.628Z,100233.05
2017-11-21T03:28:14.105Z,100230.03
2017-11-21T03:29:16.590Z,100238.16
2017-11-21T03:30:19.098Z,100234.47
2017-11-21T03:31:21.580Z,100234.16
2017-11-21T03:32:24.057Z,100233.87
2017-11-21T03:33:26.538Z,100239.25
2017-11-21T03:34:29.081Z,100232.34
2017-11-21T03:35:31.589Z,100238.05
2017-11-21T03:36:34.052Z,100236.83
2017-11-21T03:37:36.548Z,100232.11
2017-11-21T03:38:39.035Z,100232.83
2017-11-21T03:39:41.501Z,100238.41
2017-11-21T03:40:44.006Z,100234.17
2017-11-21T03:41:46.476Z,100235.16
2017-11-21T03:42:48.958Z,100234.37
2017-11-21T03:43:51.428Z,100237.41
2017-11-21T03:44:53.898Z,100235.41
2017-11-21T03:45:56.410Z,100235.58
2017-11-21T03:46:58.891Z,100234.73
2017-11-21T03:48:01.359Z,100239.87
2017-11-21T03:49:03.828Z,100230.48
2017-11-21T03:50:06.293Z,100236.84
2017-11-21T03:51:08.798Z,100231.47
2017-11-21T03:52:11.281Z,100231.47
2017-11-21T03:53:13.749Z,100234.34
2017-11-21T03:54:16.218Z,100232.55
2017-11-21T03:55:18.707Z,100232.19
2017-11-21T03:56:21.218Z,100233.95
2017-11-21T03:57:23.763Z,100238.36
2017-11-21T03:58:26.251Z,100236.20
2017-11-21T03:59:28.745Z,100238.55
2017-11-21T04:00:31.252Z,100236.84
2017-11-21T04:01:33.740Z,100238.84
2017-11-21T04:02:36.207Z,100235.14
2017-11-21T04:03:38.720Z,100235.62
2017-11-21T04:04:41.201Z,100231.53
2017-11-21T04:05:43.694Z,100225.28
2017-11-21T04:06:46.205Z,100226.55
2017-11-21T04:07:48.690Z,100230.09
2017-11-21T04:08:51.185Z,100235.89
2017-11-21T04:09:53.667Z,100233.41
2017-11-21T04:10:56.157Z,100231.77
2017-11-21T04:11:58.672Z,100235.59
2017-11-21T04:13:01.154Z,100237.97
2017-11-21T04:14:03.636Z,100242.45
2017-11-21T04:15:06.122Z,100242.25
2017-11-21T04:16:08.627Z,100239.11
2017-11-21T04:17:11.128Z,100242.03
2017-11-21T04:18:13.595Z,100236.94
2017-11-21T04:19:16.064Z,100235.16
2017-11-21T04:20:18.656Z,100242.44
2017-11-21T04:21:21.138Z,100240.69
2017-11-21T04:22:23.642Z,100236.30
2017-11-21T04:23:26.122Z,100240.31
2017-11-21T04:24:28.618Z,100235.95
2017-11-21T04:25:31.101Z,100235.09
2017-11-21T04:26:33.571Z,100241.48
2017-11-21T04:27:36.078Z,100234.25
2017-11-21T04:28:38.562Z,100244.87
2017-11-21T04:29:41.051Z,100244.44
2017-11-21T04:30:43.542Z,100246.92
2017-11-21T04:31:46.009Z,100248.14
2017-11-21T04:32:48.523Z,100244.78
2017-11-21T04:33:51.001Z,100245.71
2017-11-21T04:34:53.493Z,100248.21
2017-11-21T04:35:55.994Z,100247.06
2017-11-21T04:36:58.778Z,100246.51
2017-11-21T04:38:02.626Z,100239.52
2017-11-21T04:39:05.105Z,100246.12
2017-11-21T04:40:07.635Z,100241.05
2017-11-21T04:41:10.266Z,100240.13
2017-11-21T04:42:12.829Z,100246.49
2017-11-21T04:43:15.390Z,100242.31
2017-11-21T04:44:17.877Z,100244.73
2017-11-21T04:45:20.370Z,100241.41
2017-11-21T04:46:22.892Z,100244.25
2017-11-21T04:47:25.335Z,100243.17
2017-11-21T04:48:27.821Z,100239.42
2017-11-21T04:49:30.323Z,100241.59
2017-11-21T04:50:32.818Z,100239.97
2017-11-21T04:51:35.306Z,100241.67
2017-11-21T04:52:37.794Z,100243.78
2017-11-21T04:53:40.297Z,100243.98
2017-11-21T04:54:42.772Z,100247.61
2017-11-21T04:55:45.296Z,100234.27
2017-11-21T04:56:47.771Z,100246.38
2017-11-21T04:57:50.246Z,100243.72
2017-11-21T04:58:52.769Z,100247.11
2017-11-21T04:59:55.240Z,100238.55
2017-11-21T05:00:57.734Z,100244.56
2017-11-21T05:02:00.195Z,100242.92
2017-11-21T05:03:02.668Z,100239.30
2017-11-21T05:04:05.168Z,100242.39
2017-11-21T05:05:07.720Z,100245.44
2017-11-21T05:06:10.205Z,100246.70
2017-11-21T05:07:12.679Z,100248.75
2017-11-21T05:08:15.153Z,100252.52
2017-11-21T05:09:17.644Z,100247.66
2017-11-21T05:10:20.207Z,100254.02
2017-11-21T05:11:22.675Z,100249.67
2017-11-21T05:12:25.140Z,100254.26
2017-11-21T05:13:27.685Z,100252.22
2017-11-21T05:14:30.189Z,100251.79
2017-11-21T05:15:32.656Z,100250.01
2017-11-21T05:16:35.134Z,100257.73
2017-11-21T05:17:37.624Z,100259.19
2017-11-21T05:18:40.100Z,100252.89
2017-11-21T05:19:42.598Z,100247.80
2017-11-21T05:20:45.064Z,100248.64
2017-11-21T05:21:47.541Z,100246.03
2017-11-21T05:22:50.012Z,100245.00
2017-11-21T05:23:52.505Z,100243.31
2017-11-21T05:24:55.267Z,100241.30
2017-11-21T05:25:57.740Z,100238.04
2017-11-21T05:27:00.224Z,100241.36
2017-11-21T05:28:02.692Z,100235.60
2017-11-21T05:29:05.177Z,100241.22
2017-11-21T05:30:07.691Z,100241.61
2017-11-21T05:31:10.179Z,100247.84
2017-11-21T05:32:13.628Z,100247.86
2017-11-21T05:33:27.927Z,100236.98
2017-11-21T05:34:30.415Z,100242.75
2017-11-21T05:35:32.908Z,100250.10
2017-11-21T05:36:35.393Z,100242.38
2017-11-21T05:37:37.856Z,100239.24
2017-11-21T05:38:40.346Z,100243.45
2017-11-21T05:39:42.861Z,100243.67
2017-11-21T05:40:45.390Z,100242.34
2017-11-21T05:41:47.885Z,100243.43
2017-11-21T05:42:50.372Z,100249.00
2017-11-21T05:43:52.844Z,100251.56
2017-11-21T05:44:55.316Z,100250.41
2017-11-21T05:45:57.803Z,100251.20
2017-11-21T05:47:00.447Z,100254.11
2017-11-21T05:48:02.935Z,100250.11
2017-11-21T05:49:05.425Z,100248.22
2017-11-21T05:50:07.891Z,100247.68
2017-11-21T05:51:10.381Z,100254.03
2017-11-21T05:52:12.856Z,100251.44
2017-11-21T05:53:15.346Z,100255.69
2017-11-21T05:54:17.832Z,100248.11
2017-11-21T05:55:20.344Z,100252.23
2017-11-21T05:56:22.846Z,100253.43
2017-11-21T05:57:25.333Z,100252.71
2017-11-21T05:58:27.896Z,100250.72
2017-11-21T05:59:30.379Z,100244.41
2017-11-21T06:00:32.869Z,100245.24
2017-11-21T06:01:35.369Z,100246.88
2017-11-21T06:02:37.844Z,100248.30
2017-11-21T06:03:40.394Z,100248.84
2017-11-21T06:04:42.868Z,100244.60
2017-11-21T06:05:45.341Z,100248.61
2017-11-21T06:06:47.826Z,100248.96
2017-11-21T06:07:50.296Z,100245.98
2017-11-21T06:08:52.778Z,100243.74
2017-11-21T06:09:55.252Z,100249.25
2017-11-21T06:10:58.927Z,100255.77
2017-11-21T06:12:01.436Z,100248.95
2017-11-21T06:13:03.900Z,100252.00
2017-11-21T06:14:06.381Z,100243.98
2017-11-21T06:15:08.909Z,100247.69
2017-11-21T06:16:11.372Z,100248.90
2017-11-21T06:17:13.859Z,100249.44
2017-11-21T06:18:16.346Z,100236.04
2017-11-21T06:19:18.832Z,100247.34
2017-11-21T06:20:21.305Z,100251.57
2017-11-21T06:21:24.222Z,100252.41
2017-11-21T06:22:26.716Z,100253.34
2017-11-21T06:23:29.238Z,100250.34
2017-11-21T06:24:31.722Z,100253.77
2017-11-21T06:25:34.192Z,100249.76
2017-11-21T06:26:36.678Z,100243.93
2017-11-21T06:27:39.191Z,100250.84
2017-11-21T06:28:41.682Z,100253.50
2017-11-21T06:29:44.179Z,100251.45
2017-11-21T06:30:46.688Z,100253.82
2017-11-21T06:31:49.211Z,100253.52
2017-11-21T06:32:51.772Z,100258.61
2017-11-21T06:33:54.280Z,100255.20
2017-11-21T06:34:56.768Z,100255.75
2017-11-21T06:35:59.254Z,100255.82
2017-11-21T06:37:01.783Z,100250.66
2017-11-21T06:38:04.284Z,100253.27
2017-11-21T06:39:06.824Z,100247.81
2017-11-21T06:40:09.306Z,100246.12
2017-11-21T06:41:11.801Z,100250.91
2017-11-21T06:42:14.275Z,100250.98
2017-11-21T06:43:16.765Z,100252.54
2017-11-21T06:44:19.244Z,100248.23
2017-11-21T06:45:21.728Z,100259.21
2017-11-21T06:46:24.210Z,100257.16
2017-11-21T06:47:26.698Z,100262.06
2017-11-21T06:48:29.247Z,100263.58
2017-11-21T06:49:31.739Z,100260.55
2017-11-21T06:50:34.226Z,100264.97
2017-11-21T06:51:36.691Z,100262.48
2017-11-21T06:52:39.211Z,100264.20
2017-11-21T06:53:41.724Z,100266.45
2017-11-21T06:54:44.230Z,100262.56
2017-11-21T06:55:46.706Z,100269.90
2017-11-21T06:56:49.189Z,100268.50
2017-11-21T06:57:51.681Z,100268.36
2017-11-21T06:58:54.237Z,100272.80
2017-11-21T06:59:56.718Z,100270.00
2017-11-21T07:00:59.231Z,100270.67
2017-11-21T07:02:01.815Z,100273.06
2017-11-21T07:03:04.284Z,100274.80
2017-11-21T07:04:06.785Z,100270.38
2017-11-21T07:05:09.278Z,100279.00
2017-11-21T07:06:11.763Z,100278.57
2017-11-21T07:07:14.236Z,100275.89
2017-11-21T07:08:16.706Z,100278.24
2017-11-21T07:09:19.221Z,100275.28
2017-11-21T07:10:21.703Z,100278.36
2017-11-21T07:11:24.197Z,100279.88
2017-11-21T07:12:26.687Z,100281.30
2017-11-21T07:13:29.169Z,100282.51
2017-11-21T07:14:31.671Z,100280.73
2017-11-21T07:15:34.151Z,100281.46
2017-11-21T07:16:36.633Z,100283.53
2017-11-21T07:17:39.128Z,100283.95
2017-11-21T07:18:41.590Z,100276.00
2017-11-21T07:19:44.093Z,100280.91
2017-11-21T07:20:46.579Z,100278.17
2017-11-21T07:21:49.055Z,100280.38
2017-11-21T07:22:51.556Z,100282.55
2017-11-21T07:23:54.037Z,100280.97
2017-11-21T07:24:56.597Z,100280.06
2017-11-21T07:25:59.081Z,100277.64
2017-11-21T07:27:01.566Z,100278.50
2017-11-21T07:28:04.037Z,100276.36
2017-11-21T07:29:06.523Z,100274.48
2017-11-21T07:30:09.020Z,100273.58
2017-11-21T07:31:11.488Z,100275.63
2017-11-21T07:32:14.009Z,100280.66
2017-11-21T07:33:16.499Z,100275.08
2017-11-21T07:34:18.973Z,100280.13
2017-11-21T07:35:21.476Z,100277.91
2017-11-21T07:36:23.965Z,100288.53
2017-11-21T07:37:26.451Z,100277.70
2017-11-21T07:38:28.934Z,100285.81
2017-11-21T07:39:31.404Z,100287.09
2017-11-21T07:40:33.909Z,100284.67
2017-11-21T07:41:36.372Z,100288.92
2017-11-21T07:42:38.840Z,100285.56
2017-11-21T07:43:41.335Z,100285.55
2017-11-21T07:44:43.822Z,100284.28
2017-11-21T07:45:46.326Z,100287.20
2017-11-21T07:46:48.815Z,100281.50
2017-11-21T07:47:51.294Z,100286.11
2017-11-21T07:48:53.773Z,100282.16
2017-11-21T07:49:56.242Z,100274.52
2017-11-21T07:50:58.900Z,100279.24
2017-11-21T07:52:01.389Z,100280.56
2017-11-21T07:53:03.860Z,100275.14
2017-11-21T07:54:06.328Z,100279.48
2017-11-21T07:55:08.821Z,100277.23
2017-11-21T07:56:11.326Z,100274.69
2017-11-21T07:57:13.796Z,100270.87
2017-11-21T07:58:16.375Z,100275.00
2017-11-21T07:59:18.843Z,100274.81
2017-11-21T08:00:21.305Z,100271.89
2017-11-21T08:01:23.798Z,100275.66
2017-11-21T08:02:26.269Z,100274.87
2017-11-21T08:03:28.731Z,100272.62
2017-11-21T08:04:31.226Z,100267.64
2017-11-21T08:05:33.782Z,100271.66
2017-11-21T08:06:36.277Z,100276.70
2017-11-21T08:07:38.796Z,100267.68
2017-11-21T08:08:41.277Z,100270.91
2017-11-21T08:09:43.748Z,100272.79
2017-11-21T08:10:46.212Z,100267.38
2017-11-21T08:11:48.700Z,100270.92
2017-11-21T08:12:51.160Z,100268.26
2017-11-21T08:13:53.623Z,100272.98
2017-11-21T08:14:56.113Z,100271.75
2017-11-21T08:15:58.594Z,100268.52
2017-11-21T08:17:01.096Z,100276.14
2017-11-21T08:18:03.559Z,100271.65
2017-11-21T08:19:06.040Z,100272.55
2017-11-21T08:20:08.505Z,100275.22
2017-11-21T08:21:10.989Z,100272.94
2017-11-21T08:22:13.474Z,100271.72
2017-11-21T08:23:15.943Z,100268.28
2017-11-21T08:24:18.422Z,100268.77
2017-11-21T08:25:20.892Z,100267.18
2017-11-21T08:26:23.369Z,100270.55
2017-11-21T08:27:25.879Z,100272.52
2017-11-21T08:28:28.352Z,100267.37
2017-11-21T08:29:30.825Z,100276.08
2017-11-21T08:30:33.315Z,100265.97
2017-11-21T08:31:35.815Z,100271.97
2017-11-21T08:32:38.401Z,100272.46
2017-11-21T08:33:40.895Z,100274.27
2017-11-21T08:34:43.378Z,100275.48
2017-11-21T08:35:45.874Z,100278.02
2017-11-21T08:36:48.354Z,100273.67
2017-11-21T08:37:50.836Z,100274.14
2017-11-21T08:38:53.342Z,100271.17
2017-11-21T08:39:55.816Z,100272.64
2017-11-21T08:40:58.301Z,100268.13
2017-11-21T08:42:00.788Z,100264.52
2017-11-21T08:43:03.294Z,100269.53
2017-11-21T08:44:05.770Z,100270.95
2017-11-21T08:45:08.285Z,100269.62
2017-11-21T08:46:10.769Z,100268.45
2017-11-21T08:47:13.256Z,100271.91
2017-11-21T08:48:15.762Z,100275.86
2017-11-21T08:49:18.228Z,100271.48
2017-11-21T08:50:20.709Z,100269.55
2017-11-21T08:51:23.206Z,100273.24
2017-11-21T08:52:25.700Z,100279.18
2017-11-21T08:53:28.184Z,100274.16
2017-11-21T08:54:30.703Z,100271.19
2017-11-21T08:55:33.163Z,100273.72
2017-11-21T08:56:35.647Z,100272.29
2017-11-21T08:57:38.128Z,100274.53
2017-11-21T08:58:40.657Z,100275.38
2017-11-21T08:59:43.179Z,100274.81
2017-11-21T09:00:45.665Z,100280.23
2017-11-21T09:01:48.158Z,100275.23
2017-11-21T09:02:50.635Z,100284.45
2017-11-21T09:03:53.117Z,100281.98
2017-11-21T09:04:55.611Z,100289.30
2017-11-21T09:05:58.098Z,100290.47
2017-11-21T09:07:00.570Z,100290.83
2017-11-21T09:08:03.051Z,100294.41
2017-11-21T09:09:05.541Z,100293.63
2017-11-21T09:10:08.039Z,100293.69
2017-11-21T09:11:10.535Z,100298.30
2017-11-21T09:12:13.011Z,100299.98
2017-11-21T09:13:15.480Z,100295.08
2017-11-21T09:14:18.037Z,100305.09
2017-11-21T09:15:20.499Z,100305.86
2017-11-21T09:16:22.969Z,100304.89
2017-11-21T09:17:25.445Z,100302.80
2017-11-21T09:18:27.913Z,100304.13
2017-11-21T09:19:30.408Z,100307.19
2017-11-21T09:20:32.872Z,100303.94
2017-11-21T09:21:35.348Z,100304.17
2017-11-21T09:22:38.010Z,100310.48
2017-11-21T09:23:40.494Z,100310.00
2017-11-21T09:24:43.004Z,100307.75
2017-11-21T09:25:45.487Z,100309.68
2017-11-21T09:26:47.972Z,100310.61
2017-11-21T09:27:50.463Z,100311.03
2017-11-21T09:28:52.952Z,100315.46
2017-11-21T09:29:55.470Z,100318.50
2017-11-21T09:30:57.959Z,100313.91
2017-11-21T09:32:00.428Z,100311.59
2017-11-21T09:33:02.915Z,100311.16
2017-11-21T09:34:05.402Z,100307.13
2017-11-21T09:35:07.915Z,100308.42
2017-11-21T09:36:10.465Z,100307.13
2017-11-21T09:37:12.950Z,100314.92
2017-11-21T09:38:15.420Z,100301.47
2017-11-21T09:39:17.907Z,100308.92
2017-11-21T09:40:20.416Z,100310.89
2017-11-21T09:41:22.888Z,100306.50
2017-11-21T09:42:25.371Z,100309.48
2017-11-21T09:43:27.859Z,100301.59
2017-11-21T09:44:30.346Z,100309.30
2017-11-21T09:45:32.877Z,100303.97
2017-11-21T09:46:35.358Z,100307.30
2017-11-21T09:47:37.856Z,100309.67
2017-11-21T09:48:40.332Z,100311.77
2017-11-21T09:49:42.813Z,100303.22
2017-11-21T09:50:45.305Z,100312.39
2017-11-21T09:51:47.772Z,100307.84
2017-11-21T09:52:50.236Z,100310.02
2017-11-21T09:53:52.717Z,100313.54
2017-11-21T09:54:55.210Z,100311.05
2017-11-21T09:55:57.699Z,100313.23
2017-11-21T09:57:00.182Z,100315.95
2017-11-21T09:58:02.664Z,100316.48
2017-11-21T09:59:05.132Z,100314.55
2017-11-21T10:00:07.609Z,100315.03
2017-11-21T10:01:10.130Z,100321.59
2017-11-21T10:02:12.715Z,100310.02
2017-11-21T10:03:15.180Z,100319.78
2017-11-21T10:04:17.663Z,100319.78
2017-11-21T10:05:20.147Z,100324.50
2017-11-21T10:06:22.650Z,100320.38
2017-11-21T10:07:25.116Z,100320.38
2017-11-21T10:08:27.598Z,100319.16
2017-11-21T10:09:30.059Z,100321.47
2017-11-21T10:10:32.530Z,100316.97
2017-11-21T10:11:35.019Z,100320.20
2017-11-21T10:12:37.531Z,100319.36
2017-11-21T10:13:40.024Z,100313.95
2017-11-21T10:14:42.620Z,100318.03
2017-11-21T10:15:45.089Z,100310.43
2017-11-21T10:16:47.576Z,100318.52
2017-11-21T10:17:50.056Z,100308.20
2017-11-21T10:18:52.539Z,100322.52
2017-11-21T10:19:55.021Z,100312.62
2017-11-21T10:20:57.495Z,100315.40
2017-11-21T10:22:00.037Z,100318.16
2017-11-21T10:23:02.521Z,100314.70
2017-11-21T10:24:04.989Z,100315.35
2017-11-21T10:25:07.513Z,100316.28
2017-11-21T10:26:09.998Z,100314.22
2017-11-21T10:27:12.516Z,100309.56
2017-11-21T10:28:14.985Z,100309.45
2017-11-21T10:29:17.465Z,100303.45
2017-11-21T10:30:19.949Z,100309.43
2017-11-21T10:31:22.421Z,100306.05
2017-11-21T10:32:24.988Z,100306.77
2017-11-21T10:33:27.474Z,100301.73
2017-11-21T10:34:29.954Z,100307.86
2017-11-21T10:35:32.424Z,100301.58
2017-11-21T10:36:34.892Z,100305.77
2017-11-21T10:37:37.374Z,100307.11
2017-11-21T10:38:39.856Z,100309.30
2017-11-21T10:39:42.355Z,100298.25
2017-11-21T10:40:44.819Z,100305.21
2017-11-21T10:41:47.305Z,100307.84
2017-11-21T10:42:49.826Z,100313.10
2017-11-21T10:43:52.308Z,100310.06
2017-11-21T10:44:54.805Z,100309.68
2017-11-21T10:45:57.279Z,100308.41
2017-11-21T10:46:59.759Z,100310.73
2017-11-21T10:48:02.273Z,100305.14
2017-11-21T10:49:04.768Z,100305.37
2017-11-21T10:50:07.244Z,100311.33
2017-11-21T10:51:09.715Z,100308.72
2017-11-21T10:52:12.189Z,100310.77
2017-11-21T10:53:14.703Z,100304.06
2017-11-21T10:54:17.196Z,100305.81
2017-11-21T10:55:19.664Z,100306.54
2017-11-21T10:56:22.146Z,100308.64
2017-11-21T10:57:24.621Z,100305.70
2017-11-21T10:58:27.118Z,100305.80
2017-11-21T10:59:29.591Z,100304.30
2017-11-21T11:00:32.065Z,100300.00
2017-11-21T11:01:34.538Z,100302.68
2017-11-21T11:02:36.996Z,100299.08
2017-11-21T11:03:39.490Z,100301.13
2017-11-21T11:04:41.959Z,100294.83
2017-11-21T11:05:44.433Z,100295.80
2017-11-21T11:06:46.909Z,100294.46
2017-11-21T11:07:49.400Z,100297.14
2017-11-21T11:08:51.894Z,100296.36
2017-11-21T11:09:54.368Z,100293.17
2017-11-21T11:10:56.836Z,100297.47
2017-11-21T11:11:59.334Z,100293.29
2017-11-21T11:13:01.800Z,100290.42
2017-11-21T11:14:04.303Z,100289.69
2017-11-21T11:15:06.797Z,100293.44
2017-11-21T11:16:09.255Z,100297.89
2017-11-21T11:17:11.715Z,100291.69
2017-11-21T11:18:14.192Z,100299.27
2017-11-21T11:19:16.691Z,100299.86
2017-11-21T11:20:19.157Z,100299.68
2017-11-21T11:21:21.615Z,100294.70
2017-11-21T11:22:24.077Z,100297.56
2017-11-21T11:23:26.557Z,100294.17
2017-11-21T11:24:29.046Z,100301.44
2017-11-21T11:25:31.513Z,100303.84
2017-11-21T11:26:33.976Z,100291.18
2017-11-21T11:27:36.436Z,100294.05
2017-11-21T11:28:38.906Z,100296.66
2017-11-21T11:29:41.393Z,100297.33
2017-11-21T11:30:43.873Z,100294.67
2017-11-21T11:31:46.349Z,100294.28
2017-11-21T11:32:48.812Z,100295.81
2017-11-21T11:33:51.298Z,100294.59
2017-11-21T11:34:53.799Z,100293.83
2017-11-21T11:35:56.287Z,100295.70
2017-11-21T11:36:58.753Z,100292.75
2017-11-21T11:38:01.220Z,100295.66
2017-11-21T11:39:03.720Z,100289.77
2017-11-21T11:40:06.227Z,100287.51
2017-11-21T11:41:08.706Z,100295.28
2017-11-21T11:42:11.178Z,100291.73
2017-11-21T11:43:13.657Z,100289.05
2017-11-21T11:44:16.211Z,100288.26
2017-11-21T11:45:18.774Z,100291.53
2017-11-21T11:46:21.240Z,100296.27
2017-11-21T11:47:23.712Z,100294.52
2017-11-21T11:48:26.193Z,100289.75
2017-11-21T11:49:28.661Z,100292.30
2017-11-21T11:50:31.147Z,100295.72
2017-11-21T11:51:33.609Z,100291.58
2017-11-21T11:52:36.089Z,100291.58
2017-11-21T11:53:38.584Z,100287.35
2017-11-21T11:54:41.094Z,100292.49